sensor_id;sensor_type;location;lat;lon;timestamp;P1;durP1;ratioP1;P2;durP2;ratioP2
3991;SDS011;2010;48.194;16.394;2023-12-07T00:00:28;27.10;;;18.70;;
3991;SDS011;2010;48.194;16.394;2023-12-07T00:03:39;22.90;;;16.80;;
3991;SDS011;2010;48.194;16.394;2023-12-07T00:06:51;26.07;;;17.57;;
3991;SDS011;2010;48.194;16.394;2023-12-07T00:10:08;23.30;;;16.60;;
3991;SDS011;2010;48.194;16.394;2023-12-07T00:13:28;22.70;;;16.70;;
3991;SDS011;2010;48.194;16.394;2023-12-07T00:16:38;22.50;;;16.20;;
3991;SDS011;2010;48.194;16.394;2023-12-07T00:19:53;23.77;;;17.00;;
3991;SDS011;2010;48.194;16.394;2023-12-07T00:23:05;25.50;;;17.27;;
3991;SDS011;2010;48.194;16.394;2023-12-07T00:26:28;21.60;;;16.50;;
3991;SDS011;2010;48.194;16.394;2023-12-07T00:29:53;22.27;;;16.80;;
3991;SDS011;2010;48.194;16.394;2023-12-07T00:33:12;20.80;;;15.73;;
3991;SDS011;2010;48.194;16.394;2023-12-07T00:36:45;20.37;;;15.90;;
3991;SDS011;2010;48.194;16.394;2023-12-07T00:40:13;19.77;;;15.17;;
3991;SDS011;2010;48.194;16.394;2023-12-07T00:43:28;22.03;;;15.53;;
3991;SDS011;2010;48.194;16.394;2023-12-07T00:46:48;21.37;;;16.60;;
3991;SDS011;2010;48.194;16.394;2023-12-07T00:50:00;18.20;;;14.60;;
3991;SDS011;2010;48.194;16.394;2023-12-07T00:53:17;20.93;;;15.90;;
3991;SDS011;2010;48.194;16.394;2023-12-07T00:56:39;20.47;;;14.83;;
3991;SDS011;2010;48.194;16.394;2023-12-07T00:59:51;20.03;;;15.30;;
3991;SDS011;2010;48.194;16.394;2023-12-07T01:03:18;24.20;;;15.63;;
3991;SDS011;2010;48.194;16.394;2023-12-07T01:06:37;19.13;;;14.53;;
3991;SDS011;2010;48.194;16.394;2023-12-07T01:09:56;19.90;;;14.57;;
3991;SDS011;2010;48.194;16.394;2023-12-07T01:13:24;18.90;;;14.80;;
3991;SDS011;2010;48.194;16.394;2023-12-07T01:16:48;19.70;;;14.60;;
3991;SDS011;2010;48.194;16.394;2023-12-07T01:20:04;20.80;;;16.50;;
3991;SDS011;2010;48.194;16.394;2023-12-07T01:23:24;19.57;;;14.80;;
3991;SDS011;2010;48.194;16.394;2023-12-07T01:26:53;20.17;;;15.50;;
3991;SDS011;2010;48.194;16.394;2023-12-07T01:30:09;19.77;;;14.10;;
3991;SDS011;2010;48.194;16.394;2023-12-07T01:33:49;19.50;;;13.90;;
3991;SDS011;2010;48.194;16.394;2023-12-07T01:37:16;18.97;;;14.07;;
3991;SDS011;2010;48.194;16.394;2023-12-07T01:40:34;19.47;;;14.47;;
3991;SDS011;2010;48.194;16.394;2023-12-07T01:43:44;19.77;;;15.03;;
3991;SDS011;2010;48.194;16.394;2023-12-07T01:47:03;19.20;;;14.90;;
3991;SDS011;2010;48.194;16.394;2023-12-07T01:50:20;16.87;;;13.47;;
3991;SDS011;2010;48.194;16.394;2023-12-07T01:53:59;20.13;;;15.00;;
3991;SDS011;2010;48.194;16.394;2023-12-07T01:57:11;17.90;;;13.73;;
3991;SDS011;2010;48.194;16.394;2023-12-07T02:00:36;17.23;;;13.27;;
3991;SDS011;2010;48.194;16.394;2023-12-07T02:03:50;19.33;;;14.07;;
3991;SDS011;2010;48.194;16.394;2023-12-07T02:07:08;18.80;;;14.03;;
3991;SDS011;2010;48.194;16.394;2023-12-07T02:10:28;16.37;;;13.03;;
3991;SDS011;2010;48.194;16.394;2023-12-07T02:13:41;16.77;;;13.47;;
3991;SDS011;2010;48.194;16.394;2023-12-07T02:17:02;18.17;;;13.43;;
3991;SDS011;2010;48.194;16.394;2023-12-07T02:20:25;15.87;;;12.80;;
3991;SDS011;2010;48.194;16.394;2023-12-07T02:23:45;15.10;;;12.73;;
3991;SDS011;2010;48.194;16.394;2023-12-07T02:27:11;16.17;;;13.27;;
3991;SDS011;2010;48.194;16.394;2023-12-07T02:30:20;20.00;;;13.60;;
3991;SDS011;2010;48.194;16.394;2023-12-07T02:33:47;19.30;;;13.20;;
3991;SDS011;2010;48.194;16.394;2023-12-07T02:36:59;16.90;;;12.40;;
3991;SDS011;2010;48.194;16.394;2023-12-07T02:40:13;20.10;;;14.00;;
3991;SDS011;2010;48.194;16.394;2023-12-07T02:43:26;16.70;;;12.57;;
3991;SDS011;2010;48.194;16.394;2023-12-07T02:46:40;16.60;;;12.73;;
3991;SDS011;2010;48.194;16.394;2023-12-07T02:49:51;17.50;;;12.63;;
3991;SDS011;2010;48.194;16.394;2023-12-07T02:53:03;14.00;;;10.73;;
3991;SDS011;2010;48.194;16.394;2023-12-07T02:56:22;16.40;;;12.20;;
3991;SDS011;2010;48.194;16.394;2023-12-07T02:59:34;17.37;;;13.13;;
3991;SDS011;2010;48.194;16.394;2023-12-07T03:02:44;15.50;;;11.60;;
3991;SDS011;2010;48.194;16.394;2023-12-07T03:05:58;14.17;;;11.77;;
3991;SDS011;2010;48.194;16.394;2023-12-07T03:09:22;15.20;;;11.90;;
3991;SDS011;2010;48.194;16.394;2023-12-07T03:12:42;16.90;;;13.03;;
3991;SDS011;2010;48.194;16.394;2023-12-07T03:15:56;20.37;;;12.80;;
3991;SDS011;2010;48.194;16.394;2023-12-07T03:19:09;15.33;;;12.73;;
3991;SDS011;2010;48.194;16.394;2023-12-07T03:22:31;15.87;;;12.60;;
3991;SDS011;2010;48.194;16.394;2023-12-07T03:25:46;14.60;;;11.10;;
3991;SDS011;2010;48.194;16.394;2023-12-07T03:29:08;15.87;;;11.10;;
3991;SDS011;2010;48.194;16.394;2023-12-07T03:32:26;17.83;;;11.57;;
3991;SDS011;2010;48.194;16.394;2023-12-07T03:35:42;13.60;;;11.10;;
3991;SDS011;2010;48.194;16.394;2023-12-07T03:39:10;13.27;;;10.90;;
3991;SDS011;2010;48.194;16.394;2023-12-07T03:42:31;13.90;;;10.57;;
3991;SDS011;2010;48.194;16.394;2023-12-07T03:46:03;13.30;;;11.00;;
3991;SDS011;2010;48.194;16.394;2023-12-07T03:49:33;17.03;;;12.00;;
3991;SDS011;2010;48.194;16.394;2023-12-07T03:52:55;12.90;;;10.57;;
3991;SDS011;2010;48.194;16.394;2023-12-07T03:56:08;12.83;;;10.00;;
3991;SDS011;2010;48.194;16.394;2023-12-07T03:59:20;14.57;;;10.80;;
3991;SDS011;2010;48.194;16.394;2023-12-07T04:02:49;13.03;;;10.67;;
3991;SDS011;2010;48.194;16.394;2023-12-07T04:06:05;13.73;;;10.97;;
3991;SDS011;2010;48.194;16.394;2023-12-07T04:09:19;14.50;;;11.40;;
3991;SDS011;2010;48.194;16.394;2023-12-07T04:12:30;12.40;;;9.97;;
3991;SDS011;2010;48.194;16.394;2023-12-07T04:15:45;14.43;;;10.20;;
3991;SDS011;2010;48.194;16.394;2023-12-07T04:18:56;14.33;;;10.10;;
3991;SDS011;2010;48.194;16.394;2023-12-07T04:22:09;15.77;;;11.30;;
3991;SDS011;2010;48.194;16.394;2023-12-07T04:25:20;12.80;;;11.03;;
3991;SDS011;2010;48.194;16.394;2023-12-07T04:28:32;15.73;;;11.10;;
3991;SDS011;2010;48.194;16.394;2023-12-07T04:31:56;16.93;;;11.97;;
3991;SDS011;2010;48.194;16.394;2023-12-07T04:35:06;14.30;;;11.30;;
3991;SDS011;2010;48.194;16.394;2023-12-07T04:38:21;16.37;;;12.07;;
3991;SDS011;2010;48.194;16.394;2023-12-07T04:41:47;15.20;;;12.13;;
3991;SDS011;2010;48.194;16.394;2023-12-07T04:45:00;16.20;;;11.40;;
3991;SDS011;2010;48.194;16.394;2023-12-07T04:48:20;15.77;;;12.13;;
3991;SDS011;2010;48.194;16.394;2023-12-07T04:51:34;15.73;;;11.53;;
3991;SDS011;2010;48.194;16.394;2023-12-07T04:55:05;14.10;;;11.20;;
3991;SDS011;2010;48.194;16.394;2023-12-07T04:58:19;14.60;;;11.30;;
3991;SDS011;2010;48.194;16.394;2023-12-07T05:01:31;15.60;;;11.73;;
3991;SDS011;2010;48.194;16.394;2023-12-07T05:04:49;13.83;;;10.60;;
3991;SDS011;2010;48.194;16.394;2023-12-07T05:08:12;14.27;;;10.83;;
3991;SDS011;2010;48.194;16.394;2023-12-07T05:11:28;13.90;;;10.90;;
3991;SDS011;2010;48.194;16.394;2023-12-07T05:14:41;15.77;;;11.33;;
3991;SDS011;2010;48.194;16.394;2023-12-07T05:17:59;13.77;;;10.80;;
3991;SDS011;2010;48.194;16.394;2023-12-07T05:21:13;14.63;;;11.03;;
3991;SDS011;2010;48.194;16.394;2023-12-07T05:24:29;14.50;;;10.80;;
3991;SDS011;2010;48.194;16.394;2023-12-07T05:27:55;11.10;;;9.40;;
3991;SDS011;2010;48.194;16.394;2023-12-07T05:31:16;14.37;;;10.63;;
3991;SDS011;2010;48.194;16.394;2023-12-07T05:34:38;11.90;;;10.00;;
3991;SDS011;2010;48.194;16.394;2023-12-07T05:37:53;13.07;;;9.60;;
3991;SDS011;2010;48.194;16.394;2023-12-07T05:41:07;13.53;;;10.80;;
3991;SDS011;2010;48.194;16.394;2023-12-07T05:44:28;12.07;;;10.10;;
3991;SDS011;2010;48.194;16.394;2023-12-07T05:47:40;13.40;;;9.40;;
3991;SDS011;2010;48.194;16.394;2023-12-07T05:50:50;14.23;;;10.80;;
3991;SDS011;2010;48.194;16.394;2023-12-07T05:54:11;13.37;;;10.63;;
3991;SDS011;2010;48.194;16.394;2023-12-07T05:57:23;15.47;;;11.20;;
3991;SDS011;2010;48.194;16.394;2023-12-07T06:00:51;11.90;;;9.80;;
3991;SDS011;2010;48.194;16.394;2023-12-07T06:04:03;14.77;;;10.97;;
3991;SDS011;2010;48.194;16.394;2023-12-07T06:07:16;17.20;;;11.87;;
3991;SDS011;2010;48.194;16.394;2023-12-07T06:10:37;15.80;;;12.00;;
3991;SDS011;2010;48.194;16.394;2023-12-07T06:13:53;16.10;;;12.70;;
3991;SDS011;2010;48.194;16.394;2023-12-07T06:17:20;16.50;;;12.27;;
3991;SDS011;2010;48.194;16.394;2023-12-07T06:20:37;16.30;;;12.83;;
3991;SDS011;2010;48.194;16.394;2023-12-07T06:23:52;18.00;;;13.43;;
3991;SDS011;2010;48.194;16.394;2023-12-07T06:27:14;18.43;;;13.47;;
3991;SDS011;2010;48.194;16.394;2023-12-07T06:30:24;22.00;;;13.60;;
3991;SDS011;2010;48.194;16.394;2023-12-07T06:33:44;19.63;;;13.00;;
3991;SDS011;2010;48.194;16.394;2023-12-07T06:36:56;18.40;;;13.87;;
3991;SDS011;2010;48.194;16.394;2023-12-07T06:40:11;20.47;;;13.37;;
3991;SDS011;2010;48.194;16.394;2023-12-07T06:43:21;19.63;;;13.43;;
3991;SDS011;2010;48.194;16.394;2023-12-07T06:45:52;18.10;;;12.93;;
3991;SDS011;2010;48.194;16.394;2023-12-07T06:48:36;19.20;;;14.83;;
3991;SDS011;2010;48.194;16.394;2023-12-07T06:51:11;18.50;;;14.13;;
3991;SDS011;2010;48.194;16.394;2023-12-07T06:53:45;19.80;;;13.80;;
3991;SDS011;2010;48.194;16.394;2023-12-07T06:56:14;19.83;;;14.43;;
3991;SDS011;2010;48.194;16.394;2023-12-07T06:58:44;20.13;;;14.40;;
3991;SDS011;2010;48.194;16.394;2023-12-07T07:01:26;19.13;;;14.03;;
3991;SDS011;2010;48.194;16.394;2023-12-07T07:04:03;19.83;;;13.57;;
3991;SDS011;2010;48.194;16.394;2023-12-07T07:06:43;17.87;;;12.50;;
3991;SDS011;2010;48.194;16.394;2023-12-07T07:09:15;16.73;;;12.53;;
3991;SDS011;2010;48.194;16.394;2023-12-07T07:11:49;15.30;;;11.53;;
3991;SDS011;2010;48.194;16.394;2023-12-07T07:14:22;15.30;;;11.27;;
3991;SDS011;2010;48.194;16.394;2023-12-07T07:16:55;16.10;;;12.03;;
3991;SDS011;2010;48.194;16.394;2023-12-07T07:19:27;16.60;;;10.67;;
3991;SDS011;2010;48.194;16.394;2023-12-07T07:22:00;15.00;;;11.00;;
3991;SDS011;2010;48.194;16.394;2023-12-07T07:24:32;17.00;;;12.07;;
3991;SDS011;2010;48.194;16.394;2023-12-07T07:27:04;16.77;;;11.90;;
3991;SDS011;2010;48.194;16.394;2023-12-07T07:29:44;16.87;;;12.00;;
3991;SDS011;2010;48.194;16.394;2023-12-07T07:32:19;13.10;;;10.20;;
3991;SDS011;2010;48.194;16.394;2023-12-07T07:34:47;14.80;;;11.60;;
3991;SDS011;2010;48.194;16.394;2023-12-07T07:37:22;14.50;;;10.90;;
3991;SDS011;2010;48.194;16.394;2023-12-07T07:39:53;11.97;;;10.03;;
3991;SDS011;2010;48.194;16.394;2023-12-07T07:42:37;14.30;;;10.30;;
3991;SDS011;2010;48.194;16.394;2023-12-07T07:45:08;12.53;;;9.87;;
3991;SDS011;2010;48.194;16.394;2023-12-07T07:47:46;19.00;;;11.50;;
3991;SDS011;2010;48.194;16.394;2023-12-07T07:50:22;14.20;;;10.73;;
3991;SDS011;2010;48.194;16.394;2023-12-07T07:52:58;16.37;;;11.50;;
3991;SDS011;2010;48.194;16.394;2023-12-07T07:55:30;16.27;;;12.27;;
3991;SDS011;2010;48.194;16.394;2023-12-07T07:58:09;16.40;;;12.73;;
3991;SDS011;2010;48.194;16.394;2023-12-07T08:00:38;18.70;;;12.20;;
3991;SDS011;2010;48.194;16.394;2023-12-07T08:03:19;17.20;;;12.70;;
3991;SDS011;2010;48.194;16.394;2023-12-07T08:05:52;19.90;;;13.90;;
3991;SDS011;2010;48.194;16.394;2023-12-07T08:08:31;18.10;;;13.13;;
3991;SDS011;2010;48.194;16.394;2023-12-07T08:11:01;20.03;;;13.80;;
3991;SDS011;2010;48.194;16.394;2023-12-07T08:13:36;18.50;;;14.60;;
3991;SDS011;2010;48.194;16.394;2023-12-07T08:16:14;21.20;;;15.30;;
3991;SDS011;2010;48.194;16.394;2023-12-07T08:18:44;21.80;;;15.20;;
3991;SDS011;2010;48.194;16.394;2023-12-07T08:21:20;21.37;;;15.83;;
3991;SDS011;2010;48.194;16.394;2023-12-07T08:23:59;19.13;;;13.87;;
3991;SDS011;2010;48.194;16.394;2023-12-07T08:26:29;20.63;;;14.20;;
3991;SDS011;2010;48.194;16.394;2023-12-07T08:29:06;21.60;;;16.30;;
3991;SDS011;2010;48.194;16.394;2023-12-07T08:31:45;21.83;;;16.33;;
3991;SDS011;2010;48.194;16.394;2023-12-07T08:34:16;21.40;;;14.93;;
3991;SDS011;2010;48.194;16.394;2023-12-07T08:37:05;19.30;;;14.70;;
3991;SDS011;2010;48.194;16.394;2023-12-07T08:39:35;20.50;;;15.87;;
3991;SDS011;2010;48.194;16.394;2023-12-07T08:42:06;22.33;;;14.60;;
3991;SDS011;2010;48.194;16.394;2023-12-07T08:44:49;18.27;;;14.47;;
3991;SDS011;2010;48.194;16.394;2023-12-07T08:47:19;19.37;;;13.87;;
3991;SDS011;2010;48.194;16.394;2023-12-07T08:49:57;20.13;;;14.13;;
3991;SDS011;2010;48.194;16.394;2023-12-07T08:52:27;16.30;;;13.07;;
3991;SDS011;2010;48.194;16.394;2023-12-07T08:55:17;15.83;;;13.13;;
3991;SDS011;2010;48.194;16.394;2023-12-07T08:57:46;17.70;;;13.40;;
3991;SDS011;2010;48.194;16.394;2023-12-07T09:00:18;18.97;;;14.20;;
3991;SDS011;2010;48.194;16.394;2023-12-07T09:02:52;18.03;;;13.10;;
3991;SDS011;2010;48.194;16.394;2023-12-07T09:05:25;18.40;;;13.30;;
3991;SDS011;2010;48.194;16.394;2023-12-07T09:07:59;19.80;;;13.10;;
3991;SDS011;2010;48.194;16.394;2023-12-07T09:10:39;17.50;;;12.43;;
3991;SDS011;2010;48.194;16.394;2023-12-07T09:13:21;16.60;;;13.77;;
3991;SDS011;2010;48.194;16.394;2023-12-07T09:16:04;19.30;;;13.73;;
3991;SDS011;2010;48.194;16.394;2023-12-07T09:18:35;21.07;;;13.90;;
3991;SDS011;2010;48.194;16.394;2023-12-07T09:21:05;17.40;;;12.80;;
3991;SDS011;2010;48.194;16.394;2023-12-07T09:23:47;19.80;;;13.93;;
3991;SDS011;2010;48.194;16.394;2023-12-07T09:26:38;17.97;;;13.70;;
3991;SDS011;2010;48.194;16.394;2023-12-07T09:29:17;20.97;;;15.50;;
3991;SDS011;2010;48.194;16.394;2023-12-07T09:31:51;19.50;;;14.17;;
3991;SDS011;2010;48.194;16.394;2023-12-07T09:34:21;19.60;;;15.00;;
3991;SDS011;2010;48.194;16.394;2023-12-07T09:37:05;24.53;;;14.60;;
3991;SDS011;2010;48.194;16.394;2023-12-07T09:39:39;16.57;;;13.53;;
3991;SDS011;2010;48.194;16.394;2023-12-07T09:42:11;18.57;;;14.37;;
3991;SDS011;2010;48.194;16.394;2023-12-07T09:44:49;25.60;;;13.30;;
3991;SDS011;2010;48.194;16.394;2023-12-07T09:47:21;16.53;;;12.40;;
3991;SDS011;2010;48.194;16.394;2023-12-07T09:50:05;16.13;;;13.03;;
3991;SDS011;2010;48.194;16.394;2023-12-07T09:52:47;17.90;;;13.90;;
3991;SDS011;2010;48.194;16.394;2023-12-07T09:55:36;20.10;;;14.10;;
3991;SDS011;2010;48.194;16.394;2023-12-07T09:58:28;21.07;;;11.60;;
3991;SDS011;2010;48.194;16.394;2023-12-07T10:01:07;16.00;;;12.03;;
3991;SDS011;2010;48.194;16.394;2023-12-07T10:03:43;16.83;;;12.63;;
3991;SDS011;2010;48.194;16.394;2023-12-07T10:06:24;16.00;;;12.00;;
3991;SDS011;2010;48.194;16.394;2023-12-07T10:09:08;12.97;;;10.73;;
3991;SDS011;2010;48.194;16.394;2023-12-07T10:12:11;15.37;;;10.70;;
3991;SDS011;2010;48.194;16.394;2023-12-07T10:14:53;12.67;;;10.20;;
3991;SDS011;2010;48.194;16.394;2023-12-07T10:17:41;12.70;;;10.07;;
3991;SDS011;2010;48.194;16.394;2023-12-07T10:20:14;13.07;;;9.70;;
3991;SDS011;2010;48.194;16.394;2023-12-07T10:25:45;13.77;;;11.33;;
3991;SDS011;2010;48.194;16.394;2023-12-07T10:28:22;13.10;;;10.00;;
3991;SDS011;2010;48.194;16.394;2023-12-07T10:31:05;15.57;;;11.70;;
3991;SDS011;2010;48.194;16.394;2023-12-07T10:33:46;12.40;;;9.97;;
3991;SDS011;2010;48.194;16.394;2023-12-07T10:36:21;12.87;;;10.57;;
3991;SDS011;2010;48.194;16.394;2023-12-07T10:39:00;17.47;;;12.20;;
3991;SDS011;2010;48.194;16.394;2023-12-07T10:41:42;15.77;;;11.27;;
3991;SDS011;2010;48.194;16.394;2023-12-07T10:44:22;17.80;;;13.63;;
3991;SDS011;2010;48.194;16.394;2023-12-07T10:47:20;16.73;;;12.23;;
3991;SDS011;2010;48.194;16.394;2023-12-07T10:49:55;19.67;;;13.13;;
3991;SDS011;2010;48.194;16.394;2023-12-07T10:52:44;13.40;;;10.90;;
3991;SDS011;2010;48.194;16.394;2023-12-07T10:55:27;18.07;;;13.13;;
3991;SDS011;2010;48.194;16.394;2023-12-07T10:58:17;18.03;;;12.20;;
3991;SDS011;2010;48.194;16.394;2023-12-07T11:00:51;18.47;;;13.37;;
3991;SDS011;2010;48.194;16.394;2023-12-07T11:03:43;21.40;;;12.87;;
3991;SDS011;2010;48.194;16.394;2023-12-07T11:06:17;18.17;;;11.53;;
3991;SDS011;2010;48.194;16.394;2023-12-07T11:08:54;16.70;;;13.23;;
3991;SDS011;2010;48.194;16.394;2023-12-07T11:11:29;19.30;;;14.10;;
3991;SDS011;2010;48.194;16.394;2023-12-07T11:14:05;18.50;;;13.60;;
3991;SDS011;2010;48.194;16.394;2023-12-07T11:16:40;17.80;;;13.20;;
3991;SDS011;2010;48.194;16.394;2023-12-07T11:22:22;18.40;;;13.90;;
3991;SDS011;2010;48.194;16.394;2023-12-07T11:24:56;19.60;;;14.47;;
3991;SDS011;2010;48.194;16.394;2023-12-07T11:27:37;17.33;;;13.20;;
3991;SDS011;2010;48.194;16.394;2023-12-07T11:30:14;17.40;;;12.80;;
3991;SDS011;2010;48.194;16.394;2023-12-07T11:32:59;15.10;;;12.03;;
3991;SDS011;2010;48.194;16.394;2023-12-07T11:35:44;14.67;;;10.70;;
3991;SDS011;2010;48.194;16.394;2023-12-07T11:41:58;16.53;;;12.00;;
3991;SDS011;2010;48.194;16.394;2023-12-07T11:44:40;15.83;;;11.67;;
3991;SDS011;2010;48.194;16.394;2023-12-07T11:47:23;17.60;;;11.70;;
3991;SDS011;2010;48.194;16.394;2023-12-07T11:50:02;14.83;;;11.57;;
3991;SDS011;2010;48.194;16.394;2023-12-07T11:52:33;14.33;;;11.77;;
3991;SDS011;2010;48.194;16.394;2023-12-07T11:55:03;18.37;;;12.00;;
3991;SDS011;2010;48.194;16.394;2023-12-07T11:57:42;16.77;;;12.03;;
3991;SDS011;2010;48.194;16.394;2023-12-07T12:00:20;17.30;;;13.10;;
3991;SDS011;2010;48.194;16.394;2023-12-07T12:02:56;19.87;;;12.60;;
3991;SDS011;2010;48.194;16.394;2023-12-07T12:05:38;15.40;;;11.20;;
3991;SDS011;2010;48.194;16.394;2023-12-07T12:08:12;14.47;;;10.80;;
3991;SDS011;2010;48.194;16.394;2023-12-07T12:10:52;13.73;;;10.97;;
3991;SDS011;2010;48.194;16.394;2023-12-07T12:13:28;14.90;;;11.23;;
3991;SDS011;2010;48.194;16.394;2023-12-07T12:16:10;13.50;;;11.73;;
3991;SDS011;2010;48.194;16.394;2023-12-07T12:18:42;17.67;;;11.53;;
3991;SDS011;2010;48.194;16.394;2023-12-07T12:21:12;12.30;;;10.40;;
3991;SDS011;2010;48.194;16.394;2023-12-07T12:23:48;12.73;;;9.97;;
3991;SDS011;2010;48.194;16.394;2023-12-07T12:26:23;19.20;;;11.27;;
3991;SDS011;2010;48.194;16.394;2023-12-07T12:28:52;12.83;;;10.00;;
3991;SDS011;2010;48.194;16.394;2023-12-07T12:31:22;15.00;;;10.80;;
3991;SDS011;2010;48.194;16.394;2023-12-07T12:34:00;14.50;;;10.10;;
3991;SDS011;2010;48.194;16.394;2023-12-07T12:36:40;18.57;;;11.50;;
3991;SDS011;2010;48.194;16.394;2023-12-07T12:39:13;12.77;;;10.10;;
3991;SDS011;2010;48.194;16.394;2023-12-07T12:42:02;14.07;;;10.90;;
3991;SDS011;2010;48.194;16.394;2023-12-07T12:44:33;13.90;;;9.60;;
3991;SDS011;2010;48.194;16.394;2023-12-07T12:47:09;13.77;;;10.97;;
3991;SDS011;2010;48.194;16.394;2023-12-07T12:49:45;16.50;;;11.27;;
3991;SDS011;2010;48.194;16.394;2023-12-07T12:52:27;15.90;;;11.33;;
3991;SDS011;2010;48.194;16.394;2023-12-07T12:55:08;16.93;;;12.80;;
3991;SDS011;2010;48.194;16.394;2023-12-07T12:57:44;17.20;;;13.73;;
3991;SDS011;2010;48.194;16.394;2023-12-07T13:00:15;17.60;;;14.30;;
3991;SDS011;2010;48.194;16.394;2023-12-07T13:02:56;19.40;;;13.80;;
3991;SDS011;2010;48.194;16.394;2023-12-07T13:05:40;15.17;;;12.77;;
3991;SDS011;2010;48.194;16.394;2023-12-07T13:08:18;17.87;;;13.13;;
3991;SDS011;2010;48.194;16.394;2023-12-07T13:10:51;18.20;;;12.73;;
3991;SDS011;2010;48.194;16.394;2023-12-07T13:13:35;19.57;;;13.60;;
3991;SDS011;2010;48.194;16.394;2023-12-07T13:16:05;14.40;;;12.00;;
3991;SDS011;2010;48.194;16.394;2023-12-07T13:18:44;18.73;;;12.90;;
3991;SDS011;2010;48.194;16.394;2023-12-07T13:21:17;24.23;;;13.73;;
3991;SDS011;2010;48.194;16.394;2023-12-07T13:23:46;20.13;;;15.20;;
3991;SDS011;2010;48.194;16.394;2023-12-07T13:26:18;21.53;;;14.53;;
3991;SDS011;2010;48.194;16.394;2023-12-07T13:29:04;17.97;;;13.77;;
3991;SDS011;2010;48.194;16.394;2023-12-07T13:31:50;18.60;;;13.90;;
3991;SDS011;2010;48.194;16.394;2023-12-07T13:34:23;17.77;;;13.07;;
3991;SDS011;2010;48.194;16.394;2023-12-07T13:36:59;18.33;;;13.70;;
3991;SDS011;2010;48.194;16.394;2023-12-07T13:39:36;17.63;;;13.50;;
3991;SDS011;2010;48.194;16.394;2023-12-07T13:42:18;15.87;;;11.60;;
3991;SDS011;2010;48.194;16.394;2023-12-07T13:44:47;21.00;;;13.00;;
3991;SDS011;2010;48.194;16.394;2023-12-07T13:47:28;17.07;;;12.87;;
3991;SDS011;2010;48.194;16.394;2023-12-07T13:50:06;15.33;;;10.37;;
3991;SDS011;2010;48.194;16.394;2023-12-07T13:52:35;16.63;;;12.67;;
3991;SDS011;2010;48.194;16.394;2023-12-07T13:55:14;17.03;;;10.67;;
3991;SDS011;2010;48.194;16.394;2023-12-07T13:58:00;14.83;;;11.13;;
3991;SDS011;2010;48.194;16.394;2023-12-07T14:00:29;14.47;;;10.93;;
3991;SDS011;2010;48.194;16.394;2023-12-07T14:02:59;14.83;;;11.67;;
3991;SDS011;2010;48.194;16.394;2023-12-07T14:05:32;15.23;;;11.20;;
3991;SDS011;2010;48.194;16.394;2023-12-07T14:08:03;15.30;;;11.87;;
3991;SDS011;2010;48.194;16.394;2023-12-07T14:10:35;16.40;;;11.70;;
3991;SDS011;2010;48.194;16.394;2023-12-07T14:13:33;13.27;;;10.70;;
3991;SDS011;2010;48.194;16.394;2023-12-07T14:16:08;14.03;;;11.47;;
3991;SDS011;2010;48.194;16.394;2023-12-07T14:18:51;17.13;;;12.30;;
3991;SDS011;2010;48.194;16.394;2023-12-07T14:21:47;16.63;;;12.33;;
3991;SDS011;2010;48.194;16.394;2023-12-07T14:24:25;17.10;;;12.60;;
3991;SDS011;2010;48.194;16.394;2023-12-07T14:27:11;16.40;;;10.97;;
3991;SDS011;2010;48.194;16.394;2023-12-07T14:29:51;15.77;;;12.17;;
3991;SDS011;2010;48.194;16.394;2023-12-07T14:32:22;15.00;;;12.33;;
3991;SDS011;2010;48.194;16.394;2023-12-07T14:34:59;15.57;;;12.90;;
3991;SDS011;2010;48.194;16.394;2023-12-07T14:37:36;14.50;;;11.80;;
3991;SDS011;2010;48.194;16.394;2023-12-07T14:40:09;16.33;;;12.40;;
3991;SDS011;2010;48.194;16.394;2023-12-07T14:42:51;21.43;;;12.73;;
3991;SDS011;2010;48.194;16.394;2023-12-07T14:45:26;18.37;;;15.40;;
3991;SDS011;2010;48.194;16.394;2023-12-07T14:47:59;20.80;;;13.20;;
3991;SDS011;2010;48.194;16.394;2023-12-07T14:50:35;21.03;;;14.37;;
3991;SDS011;2010;48.194;16.394;2023-12-07T14:53:10;22.10;;;14.23;;
3991;SDS011;2010;48.194;16.394;2023-12-07T14:55:51;17.93;;;13.53;;
3991;SDS011;2010;48.194;16.394;2023-12-07T14:58:32;20.00;;;13.80;;
3991;SDS011;2010;48.194;16.394;2023-12-07T15:01:29;17.50;;;12.70;;
3991;SDS011;2010;48.194;16.394;2023-12-07T15:04:00;18.80;;;14.07;;
3991;SDS011;2010;48.194;16.394;2023-12-07T15:06:33;19.00;;;15.13;;
3991;SDS011;2010;48.194;16.394;2023-12-07T15:09:12;18.80;;;15.00;;
3991;SDS011;2010;48.194;16.394;2023-12-07T15:11:54;19.97;;;14.80;;
3991;SDS011;2010;48.194;16.394;2023-12-07T15:14:25;22.57;;;16.70;;
3991;SDS011;2010;48.194;16.394;2023-12-07T15:17:07;22.87;;;16.67;;
3991;SDS011;2010;48.194;16.394;2023-12-07T15:19:36;27.13;;;16.70;;
3991;SDS011;2010;48.194;16.394;2023-12-07T15:22:09;23.50;;;16.50;;
3991;SDS011;2010;48.194;16.394;2023-12-07T15:24:38;22.13;;;16.67;;
3991;SDS011;2010;48.194;16.394;2023-12-07T15:27:19;24.90;;;16.50;;
3991;SDS011;2010;48.194;16.394;2023-12-07T15:29:55;33.20;;;20.90;;
3991;SDS011;2010;48.194;16.394;2023-12-07T15:32:31;27.33;;;18.63;;
3991;SDS011;2010;48.194;16.394;2023-12-07T15:35:07;35.93;;;22.37;;
3991;SDS011;2010;48.194;16.394;2023-12-07T15:37:41;27.83;;;19.20;;
3991;SDS011;2010;48.194;16.394;2023-12-07T15:40:19;27.40;;;19.00;;
3991;SDS011;2010;48.194;16.394;2023-12-07T15:42:54;25.07;;;18.50;;
3991;SDS011;2010;48.194;16.394;2023-12-07T15:45:25;33.07;;;20.87;;
3991;SDS011;2010;48.194;16.394;2023-12-07T15:48:00;31.83;;;20.07;;
3991;SDS011;2010;48.194;16.394;2023-12-07T15:50:34;29.07;;;19.80;;
3991;SDS011;2010;48.194;16.394;2023-12-07T15:53:04;31.93;;;19.93;;
3991;SDS011;2010;48.194;16.394;2023-12-07T15:55:35;29.97;;;20.50;;
3991;SDS011;2010;48.194;16.394;2023-12-07T15:58:10;32.50;;;20.50;;
3991;SDS011;2010;48.194;16.394;2023-12-07T16:01:00;27.63;;;20.07;;
3991;SDS011;2010;48.194;16.394;2023-12-07T16:03:45;25.97;;;18.60;;
3991;SDS011;2010;48.194;16.394;2023-12-07T16:06:15;27.13;;;18.30;;
3991;SDS011;2010;48.194;16.394;2023-12-07T16:08:50;27.87;;;18.93;;
3991;SDS011;2010;48.194;16.394;2023-12-07T16:11:28;26.67;;;16.60;;
3991;SDS011;2010;48.194;16.394;2023-12-07T16:14:03;27.60;;;18.57;;
3991;SDS011;2010;48.194;16.394;2023-12-07T16:16:53;28.00;;;17.00;;
3991;SDS011;2010;48.194;16.394;2023-12-07T16:19:26;23.63;;;17.00;;
3991;SDS011;2010;48.194;16.394;2023-12-07T16:21:58;28.27;;;17.03;;
3991;SDS011;2010;48.194;16.394;2023-12-07T16:24:35;24.73;;;17.60;;
3991;SDS011;2010;48.194;16.394;2023-12-07T16:27:11;21.13;;;16.87;;
3991;SDS011;2010;48.194;16.394;2023-12-07T16:29:43;25.20;;;16.47;;
3991;SDS011;2010;48.194;16.394;2023-12-07T16:32:19;23.80;;;16.73;;
3991;SDS011;2010;48.194;16.394;2023-12-07T16:34:52;24.60;;;15.97;;
3991;SDS011;2010;48.194;16.394;2023-12-07T16:37:36;24.50;;;17.10;;
3991;SDS011;2010;48.194;16.394;2023-12-07T16:40:07;22.03;;;16.03;;
3991;SDS011;2010;48.194;16.394;2023-12-07T16:42:45;25.67;;;15.93;;
3991;SDS011;2010;48.194;16.394;2023-12-07T16:45:27;22.90;;;16.30;;
3991;SDS011;2010;48.194;16.394;2023-12-07T16:48:04;24.13;;;16.37;;
3991;SDS011;2010;48.194;16.394;2023-12-07T16:50:42;27.13;;;17.27;;
3991;SDS011;2010;48.194;16.394;2023-12-07T16:53:17;26.93;;;16.80;;
3991;SDS011;2010;48.194;16.394;2023-12-07T16:55:50;23.37;;;16.77;;
3991;SDS011;2010;48.194;16.394;2023-12-07T16:58:26;23.90;;;16.20;;
3991;SDS011;2010;48.194;16.394;2023-12-07T17:00:59;31.40;;;21.57;;
3991;SDS011;2010;48.194;16.394;2023-12-07T17:03:35;25.40;;;17.70;;
3991;SDS011;2010;48.194;16.394;2023-12-07T17:06:13;22.93;;;15.80;;